Latest Weather Observations for Walgett

IDN60801

Issued at 6:03 am EDT Friday 27 March 2015 (issued every 30 minutes, with the page automatically refreshed every 10 minutes)

About weather observations | Map of weather stations | Latest weather observations for NSW | Other Formats
Station Details ID: 052088 Name: WALGETT AIRPORT AWS Lat: -30.04 Lon: 148.12 Height: 133.0 m
Data from the previous 72 hours. | See also: Recent months at Walgett
Date/Time
EDT
Temp
°C
App
Temp
°C
Dew
Point
Rel
Hum
%
Delta-T
°C
Wind Press
QNH
hPa
Press
MSL
hPa
Rain
since 9 am
mm
Dir
 
Spd
km/h
Gust
km/h
Spd
kts
Gust
kts
27/06:00am 12.3 6.4 -2.3 36 5.7 SSW 19 22 10 12 1022.9 1022.3 0.0
27/05:30am 13.4 6.9 -2.1 34 6.2 SSW 22 28 12 15 1022.4 1021.8 0.0
27/05:00am 13.6 7.6 -1.9 34 6.2 SSW 20 24 11 13 1022.3 1021.7 0.0
27/04:30am 14.0 8.2 -1.6 34 6.3 SSW 19 24 10 13 1022.4 1021.8 0.0
27/04:00am 14.4 8.4 -1.6 33 6.5 SSW 20 24 11 13 1022.3 1021.7 0.0
27/03:30am 14.5 8.7 -1.2 34 6.5 S 19 24 10 13 1022.3 1021.7 0.0
27/03:00am 15.0 9.1 -1.1 33 6.7 S 20 22 11 12 1022.4 1021.8 0.0
27/02:30am 15.5 9.6 -0.7 33 6.8 S 20 24 11 13 1022.7 1022.1 0.0
27/02:00am 16.6 10.2 0.7 34 6.9 S 24 30 13 16 1022.7 1022.1 0.0
27/01:30am 16.7 10.7 1.2 35 6.9 S 22 28 12 15 1022.7 1022.1 0.0
27/01:00am 17.4 11.5 1.8 35 7.0 S 22 28 12 15 1022.6 1022.0 0.0
27/12:30am 17.0 11.4 1.0 34 7.1 S 20 24 11 13 1022.4 1021.8 0.0
27/12:00am 16.8 11.5 -0.4 31 7.3 S 17 20 9 11 1022.2 1021.6 0.0
 
Date/Time
EDT
Temp
°C
App
Temp
°C
Dew
Point
Rel
Hum
%
Delta-T
°C
Wind Press
QNH
hPa
Press
MSL
hPa
Rain
since 9 am
mm
Dir
 
Spd
km/h
Gust
km/h
Spd
kts
Gust
kts
26/11:30pm 16.9 11.5 -1.2 29 7.6 SSW 17 20 9 11 1022.2 1021.6 0.0
26/11:00pm 15.9 11.0 -3.1 27 7.6 S 13 15 7 8 1021.9 1021.3 0.0
26/10:30pm 17.1 12.4 -2.0 27 7.9 SSW 13 15 7 8 1021.8 1021.2 0.0
26/10:00pm 16.8 13.7 -2.3 27 7.8 SSW 4 9 2 5 1021.6 1021.0 0.0
26/09:30pm 18.0 14.6 -1.8 26 8.3 SSW 6 7 3 4 1021.3 1020.7 0.0
26/09:00pm 19.3 15.4 -1.2 25 8.8 SSW 9 9 5 5 1021.0 1020.4 0.0
26/08:30pm 20.9 17.1 -1.0 23 9.6 SSW 9 13 5 7 1020.7 1020.1 0.0
26/08:00pm 22.6 18.1 -0.2 22 10.3 SSW 13 17 7 9 1020.3 1019.7 0.0
26/07:30pm 23.9 19.0 -0.4 20 11.1 SSW 15 20 8 11 1019.9 1019.3 0.0
26/07:00pm 24.9 19.3 -0.3 19 11.6 SSW 19 28 10 15 1019.6 1019.0 0.0
26/06:30pm 25.9 19.7 -0.2 18 12.1 SSW 22 28 12 15 1019.3 1018.7 0.0
26/06:00pm 26.7 20.4 -1.2 16 12.8 SSW 22 30 12 16 1019.0 1018.3 0.0
26/05:30pm 27.1 21.2 -0.9 16 13.0 SW 20 32 11 17 1018.8 1018.1 0.0
26/05:00pm 27.3 21.4 -0.7 16 13.0 SW 20 30 11 16 1018.8 1018.1 0.0
26/04:30pm 27.5 21.3 -0.5 16 13.1 SW 22 33 12 18 1018.8 1018.1 0.0
26/04:00pm 28.0 22.2 -0.1 16 13.3 WSW 20 30 11 16 1018.9 1018.2 0.0
26/03:30pm 28.0 22.4 -0.1 16 13.3 SW 19 28 10 15 1019.1 1018.5 0.0
26/03:00pm 27.6 22.4 0.4 17 12.9 SW 17 28 9 15 1019.4 1018.8 0.0
26/02:30pm 27.3 21.7 0.9 18 12.6 SW 20 30 11 16 1019.6 1019.0 0.0
26/02:00pm 27.1 22.1 1.5 19 12.3 WSW 17 32 9 17 1019.9 1019.3 0.0
26/01:30pm 26.7 21.3 1.2 19 12.2 WSW 19 30 10 16 1020.3 1019.7 0.0
26/01:00pm 26.1 20.7 1.4 20 11.8 SSW 19 30 10 16 1020.6 1020.0 0.0
26/12:30pm 25.4 20.0 2.2 22 11.2 SW 20 30 11 16 1021.1 1020.5 0.0
26/12:00pm 25.5 21.1 2.9 23 11.0 SSW 15 24 8 13 1021.3 1020.7 0.0
26/11:30am 24.8 19.7 2.9 24 10.6 S 19 41 10 22 1021.4 1020.8 0.0
26/11:00am 24.6 19.6 4.4 27 10.1 S 20 30 11 16 1021.5 1020.9 0.0
26/10:30am 22.8 17.3 3.9 29 9.3 S 22 28 12 15 1021.5 1020.9 0.0
26/10:00am 21.7 15.7 3.4 30 8.8 S 24 32 13 17 1021.4 1020.8 0.0
26/09:30am 20.3 14.6 3.1 32 8.2 S 22 28 12 15 1021.2 1020.6 0.0
26/09:00am 18.2 12.4 2.1 34 7.3 SSW 22 30 12 16 1021.0 1020.4 0.0
26/08:30am 16.3 12.0 1.2 36 6.6 SW 13 20 7 11 1020.7 1020.1 0.0
26/08:00am 13.8 10.1 0.1 39 5.8 WSW 9 11 5 6 1020.1 1019.5 0.0
26/07:30am 12.0 8.2 -0.5 42 5.1 SW 9 13 5 7 1019.8 1019.2 0.0
26/07:00am 12.4 8.2 -0.8 40 5.4 SW 11 13 6 7 1019.5 1018.9 0.0
26/06:30am 12.6 8.7 -1.7 37 5.7 SW 9 13 5 7 1019.1 1018.5 0.0
26/06:00am 13.3 9.0 -1.8 35 6.1 WSW 11 15 6 8 1018.7 1018.0 0.0
26/05:30am 13.0 8.6 -2.1 35 6.0 WSW 11 15 6 8 1018.5 1017.8 0.0
26/05:00am 12.9 8.5 -2.2 35 6.0 WSW 11 13 6 7 1018.2 1017.5 0.0
26/04:30am 13.5 9.6 -1.6 35 6.1 WSW 9 13 5 7 1017.9 1017.2 0.0
26/04:00am 11.9 8.4 -1.6 39 5.4 SW 7 9 4 5 1017.9 1017.2 0.0
26/03:30am 11.5 7.1 -2.3 38 5.4 WSW 11 11 6 6 1017.9 1017.2 0.0
26/03:00am 12.8 8.8 -2.3 35 6.0 WSW 9 11 5 6 1017.9 1017.2 0.0
26/02:30am 13.2 9.8 -2.3 34 6.2 WNW 6 6 3 3 1018.0 1017.3 0.0
26/02:00am 12.6 8.5 -2.8 34 6.0 WSW 9 11 5 6 1017.9 1017.2 0.0
26/01:30am 13.3 9.9 -2.2 34 6.2 W 6 7 3 4 1017.8 1017.1 0.0
26/01:00am 13.5 9.1 -2.8 32 6.4 WSW 11 13 6 7 1017.8 1017.1 0.0
26/12:30am 13.7 9.6 -2.7 32 6.5 SW 9 11 5 6 1017.7 1017.0 0.0
26/12:00am 15.2 11.6 -1.8 31 7.0 WSW 7 7 4 4 1017.7 1017.0 0.0
 
Date/Time
EDT
Temp
°C
App
Temp
°C
Dew
Point
Rel
Hum
%
Delta-T
°C
Wind Press
QNH
hPa
Press
MSL
hPa
Rain
since 9 am
mm
Dir
 
Spd
km/h
Gust
km/h
Spd
kts
Gust
kts
25/11:30pm 14.8 10.6 -3.5 28 7.2 SSW 9 9 5 5 1017.7 1017.0 0.0
25/11:00pm 17.1 13.5 -2.0 27 7.9 SSW 7 9 4 5 1017.7 1017.0 0.0
25/10:30pm 17.2 14.1 -3.0 25 8.2 SSE 4 11 2 6 1017.7 1017.0 0.0
25/10:00pm 17.3 13.6 -2.9 25 8.2 SSW 7 7 4 4 1017.7 1017.0 0.0
25/09:30pm 17.4 13.5 -5.1 21 8.8 SSW 7 9 4 5 1017.5 1016.8 0.0
25/09:00pm 20.1 15.9 -3.5 20 9.8 SSW 9 11 5 6 1017.1 1016.5 0.0
25/08:30pm 21.6 17.2 -2.3 20 10.3 SW 11 15 6 8 1016.8 1016.2 0.0
25/08:00pm 22.3 17.9 -2.4 19 10.7 SW 11 13 6 7 1016.6 1016.0 0.0
25/07:30pm 23.6 19.6 -2.1 18 11.3 SW 9 13 5 7 1016.4 1015.8 0.0
25/07:00pm 25.8 20.7 -1.9 16 12.4 WSW 15 20 8 11 1016.0 1015.4 0.0
25/06:30pm 27.1 21.9 -2.7 14 13.3 WSW 15 19 8 10 1015.6 1015.0 0.0
25/06:00pm 27.7 22.2 -2.2 14 13.6 SW 17 24 9 13 1015.4 1014.8 0.0
25/05:30pm 28.0 22.1 -1.0 15 13.5 WSW 20 28 11 15 1015.0 1014.4 0.0
25/05:00pm 28.8 23.1 -0.4 15 13.8 W 19 30 10 16 1015.0 1014.4 0.0
25/04:30pm 28.9 23.6 -0.3 15 13.8 WSW 17 28 9 15 1015.0 1014.4 0.0
25/04:00pm 29.2 24.4 -0.1 15 14.0 WSW 15 28 8 15 1015.2 1014.6 0.0
25/03:30pm 28.4 22.5 -0.7 15 13.6 SW 20 32 11 17 1015.3 1014.7 0.0
25/03:00pm 28.3 22.7 0.1 16 13.4 WSW 19 28 10 15 1015.4 1014.8 0.0
25/02:30pm 27.8 22.3 0.5 17 13.0 WSW 19 30 10 16 1015.7 1015.1 0.0
25/02:00pm 27.0 21.5 0.7 18 12.5 SW 19 30 10 16 1015.8 1015.2 0.0
25/01:30pm 26.5 20.9 1.0 19 12.2 SW 20 32 11 17 1016.2 1015.6 0.0
25/01:00pm 26.2 20.4 2.2 21 11.7 SW 22 30 12 16 1016.5 1015.9 0.0
25/12:30pm 25.6 20.5 4.1 25 10.8 SW 20 32 11 17 1017.0 1016.4 0.0
25/12:00pm 24.4 19.3 4.2 27 10.0 SW 20 30 11 16 1017.4 1016.7 0.0
25/11:30am 24.4 18.7 4.7 28 9.9 SSW 24 35 13 19 1017.6 1016.9 0.0
25/11:00am 23.6 18.7 5.0 30 9.3 SSW 20 28 11 15 1017.8 1017.1 0.0
25/10:30am 22.7 17.3 4.7 31 8.9 S 22 32 12 17 1017.9 1017.2 0.0
25/10:00am 21.1 16.0 4.2 33 8.2 S 20 26 11 14 1018.1 1017.4 0.0
25/09:30am 20.3 15.0 4.8 36 7.6 S 22 28 12 15 1018.0 1017.3 0.0
25/09:00am 18.6 12.7 4.0 38 6.9 S 24 32 13 17 1017.7 1017.0 0.0
25/08:30am 17.1 12.2 4.1 42 6.1 SSW 19 24 10 13 1017.5 1016.8 0.0
25/08:00am 15.9 11.7 4.0 45 5.5 SSW 15 22 8 12 1017.1 1016.5 0.0
25/07:30am 15.2 11.0 4.0 47 5.2 SSW 15 20 8 11 1016.6 1016.0 0.0
25/07:00am 15.0 10.8 3.8 47 5.2 SSW 15 17 8 9 1016.2 1015.6 0.0
25/06:30am 15.8 11.3 4.2 46 5.4 SSW 17 22 9 12 1016.0 1015.4 0.0
25/06:00am 16.2 11.7 4.3 45 5.6 SSW 17 22 9 12 1015.8 1015.2 0.0
25/05:30am 16.6 11.8 4.6 45 5.7 SSW 19 26 10 14 1015.5 1014.9 0.0
25/05:00am 17.0 12.0 4.7 44 5.9 SSW 20 24 11 13 1015.2 1014.6 0.0
25/04:30am 17.5 12.6 5.1 44 6.0 SSW 20 26 11 14 1015.0 1014.4 0.0
25/04:00am 17.9 12.3 5.5 44 6.1 SSW 24 32 13 17 1014.8 1014.2 0.0
25/03:30am 18.5 13.9 6.7 46 5.9 SSW 20 28 11 15 1014.9 1014.3 0.0
25/03:00am 18.9 13.5 6.4 44 6.3 SSW 24 32 13 17 1015.0 1014.4 0.0
25/02:30am 18.9 15.0 7.0 46 6.0 SSW 17 22 9 12 1015.1 1014.5 0.0
25/02:00am 19.7 15.9 7.4 45 6.3 SSW 17 24 9 13 1015.3 1014.7 0.0
25/01:30am 20.1 15.8 7.1 43 6.6 S 19 26 10 14 1015.2 1014.6 0.0
25/01:00am 20.6 16.2 7.6 43 6.7 S 20 28 11 15 1015.0 1014.4 0.0
25/12:30am 21.1 16.3 7.3 41 7.1 S 22 30 12 16 1015.2 1014.6 0.0
25/12:00am 21.6 16.4 7.4 40 7.4 S 24 30 13 16 1015.3 1014.7 0.0
 
Date/Time
EDT
Temp
°C
App
Temp
°C
Dew
Point
Rel
Hum
%
Delta-T
°C
Wind Press
QNH
hPa
Press
MSL
hPa
Rain
since 9 am
mm
Dir
 
Spd
km/h
Gust
km/h
Spd
kts
Gust
kts
24/11:30pm 22.7 15.1 7.7 38 7.9 S 37 46 20 25 1015.2 1014.6 0.0
24/11:00pm 23.9 16.0 7.9 36 8.5 S 39 48 21 26 1014.9 1014.3 0.0
24/10:30pm 25.3 19.7 10.0 38 8.5 S 30 35 16 19 1014.4 1013.8 0.0
24/10:00pm 25.8 21.6 11.2 40 8.3 S 24 32 13 17 1013.9 1013.3 0.0
24/09:30pm 26.3 22.4 10.9 38 8.7 S 22 28 12 15 1013.5 1012.9 0.0
24/09:00pm 27.4 23.2 11.0 36 9.4 S 24 32 13 17 1012.8 1012.2 0.0
24/08:30pm 28.0 22.7 11.1 35 9.7 S 30 37 16 20 1012.0 1011.3 0.0
24/08:00pm 29.1 23.9 11.6 33 10.2 S 30 37 16 20 1011.3 1010.6 0.0
24/07:30pm 30.3 25.3 12.2 33 10.7 SSW 30 39 16 21 1010.5 1009.8 0.0
24/07:00pm 31.7 26.8 12.5 31 11.5 SSW 30 39 16 21 1009.7 1009.0 0.0
24/06:57pm 31.8 26.9 12.6 31 11.5 SSW 30 37 16 20 1009.6 1008.9 0.0
24/06:30pm 33.2 28.2 13.3 30 12.1 SSW 32 44 17 24 1008.9 1008.3 0.0
24/06:14pm 34.0 28.6 14.0 30 12.3 SW 35 44 19 24 1008.5 1007.9 0.0
24/06:01pm 34.8 30.8 14.1 28 12.8 SW 28 46 15 25 1008.2 1007.6 0.0
24/06:00pm 35.2 31.1 13.9 27 13.2 SW 28 39 15 21 1008.2 1007.6 0.0
24/05:30pm 35.0 30.9 13.8 28 13.0 SW 28 39 15 21 1007.9 1007.3 0.0
24/05:05pm 35.7 30.6 13.8 27 13.5 WSW 33 48 18 26 1007.7 1007.1 0.0
24/05:00pm 36.9 31.2 11.0 21 15.4 W 32 43 17 23 1007.5 1006.9 0.0
24/04:45pm 37.1 31.2 10.4 20 15.8 W 32 43 17 23 1007.5 1006.9 0.0
24/04:30pm 36.9 30.5 9.5 19 15.9 W 33 48 18 26 1007.4 1006.8 0.0
24/04:21pm 37.3 31.6 9.8 19 16.1 WNW 30 48 16 26 1007.4 1006.8 0.0
24/04:06pm 38.1 31.8 11.2 20 16.1 W 35 48 19 26 1007.2 1006.6 0.0
24/04:00pm 37.9 32.0 11.1 20 16.1 W 33 50 18 27 1007.3 1006.7 0.0
24/03:50pm 38.2 32.7 10.5 19 16.4 W 30 48 16 26 1007.2 1006.6 0.0
24/03:30pm 38.3 33.0 11.4 20 16.2 WNW 30 44 16 24 1007.5 1006.9 0.0
24/03:10pm 37.4 33.6 14.6 25 14.3 NW 28 46 15 25 1007.9 1007.3 0.0
24/03:00pm 37.5 33.3 14.7 25 14.4 NW 30 44 16 24 1008.0 1007.4 0.0
24/02:32pm 35.5 32.3 16.3 32 12.3 NNW 28 39 15 21 1008.5 1007.9 0.0
24/02:30pm 36.0 32.4 16.2 31 12.6 NW 30 39 16 21 1008.5 1007.9 0.0
24/02:17pm 36.3 33.9 16.5 31 12.7 NW 24 39 13 21 1008.8 1008.2 0.0
24/02:00pm 36.5 34.8 17.1 31 12.6 NW 22 37 12 20 1009.2 1008.6 0.0
24/01:30pm 36.7 35.8 18.3 34 12.1 NW 20 30 11 16 1009.9 1009.2 0.0
24/01:00pm 35.5 33.6 17.7 35 11.6 NNW 24 33 13 18 1010.3 1009.6 0.0
24/12:30pm 34.6 32.0 17.8 37 10.9 NNW 28 43 15 23 1010.8 1010.1 0.0
24/12:00pm 33.5 30.8 17.6 38 10.3 NNW 28 37 15 20 1011.3 1010.6 0.0
24/11:30am 33.2 31.0 17.8 40 10.0 N 26 35 14 19 1011.5 1010.8 0.0
24/11:00am 32.1 29.5 17.9 42 9.2 NNW 28 41 15 22 1011.7 1011.0 0.0
24/10:30am 31.0 28.4 17.7 45 8.5 N 28 39 15 21 1012.0 1011.3 0.0
24/10:00am 30.8 28.4 18.2 47 8.1 N 28 33 15 18 1012.0 1011.3 0.0
24/09:30am 29.1 26.3 17.3 49 7.5 NNE 28 37 15 20 1012.3 1011.6 0.0
24/09:00am 28.1 25.2 17.0 51 7.0 NNE 28 37 15 20 1012.1 1011.4 0.0
24/08:30am 27.3 24.7 16.9 53 6.5 NNE 26 37 14 20 1012.1 1011.4 0.0
24/08:00am 26.4 24.5 16.6 55 6.1 NNE 22 30 12 16 1011.9 1011.2 0.0
24/07:30am 25.8 24.2 16.4 56 5.8 NNE 20 26 11 14 1011.7 1011.0 0.0
24/07:00am 26.0 23.9 16.3 55 6.0 NNE 22 26 12 14 1011.6 1010.9 0.0
24/06:30am 25.8 24.0 16.1 55 6.0 NNE 20 26 11 14 1011.4 1010.7 0.0

Other Formats:

Comma delimited format used in spreadsheet applications
http://www.bom.gov.au/fwo/IDN60801/IDN60801.95715.axf

JavaScript Object Notation format (JSON) in row-major order
http://www.bom.gov.au/fwo/IDN60801/IDN60801.95715.json